METAR SBMG

2018071709 - METAR SBMG 170900Z 05009KT CAVOK 22/10 Q1019=

Escala PR-FEA

ESCALA - SIMULADOR GA-18

Escala PR-FGM
Powered by ©Kanestech